Hovedside
METAR-TAF:

METAR-TAF

Lufthavner :

Aurora State Airport

Aurora, Oregon, USA

breddegrad: 45-14-56N, lengdegrad: 122-45-56W, høyde over havet: 59 m

Gjeldene værobservasjon

Denne rapporten ble laget for 13 minutter siden, klokken 11:53 UTC
Vind 4 kt fra Øst
Temperatur 9°C
Luftfuktighet 93%
Trykk 1022 hPa
Sikt: 12.9 km
Skyfri himmel

METAR: KUAO 201153Z AUTO 08004KT 8SM CLR 09/08 A3018 RMK AO2 SLP217 T00940083 10128 20083 58006

Tid: 05:06 (12:06 UTC)

Varsel

Denne rapporten ble laget for 34 minutter siden, klokken 11:32 UTC
Varsel gyldig fra 20. klokken 12 UTC til 21. klokken 12 UTC
Vind kt fra Nord
Sikt: 10 km
Skyfri himmel
Fra 20. klokken 1300 UTC
Vind kt fra Nord
Sikt: 1.6 km
Overskyet i en høyde av 300 ft
dis
Fra 20. klokken 1700 UTC
Vind 6 kt fra Nord
Sikt: 10 km
Skyfri himmel

TAF: KUAO 201132Z 2012/2112 00000KT P6SM SKC FM201300 00000KT 1SM BR OVC003 FM201700 01006KT P6SM SKC

Værobservasjoner og værvarsel for over 4000 flyplasser (METAR- og TAF-rapporter).

Tilgjengelige stasjoner er representert av de røde og gule prikkene på kartet.

Hold musepekeren over prikken for å se navnet på stasjonen.

Klikk så for å se værobservasjoner og -varsler.

For å forandre kartet kan du klikke på den grønne knappen med svart kryss for å zoome inn, på den grønne knappen med strek for å zoome ut, eller på de grønne pilene for å se tilstøtende kart.


METAR-TAF: